createdAt,value
2019-04-21T00:01:37.684Z,7.77
2019-04-21T00:04:19.823Z,6.57
2019-04-21T00:07:02.927Z,8.07
2019-04-21T00:12:12.414Z,8.00
2019-04-21T00:14:34.985Z,7.67
2019-04-21T00:17:00.595Z,8.40
2019-04-21T00:20:06.070Z,7.90
2019-04-21T00:22:41.679Z,7.80
2019-04-21T00:25:16.338Z,10.03
2019-04-21T00:27:53.298Z,9.60
2019-04-21T00:30:32.974Z,9.27
2019-04-21T00:32:52.481Z,9.60
2019-04-21T00:35:20.606Z,11.67
2019-04-21T00:38:09.433Z,9.27
2019-04-21T00:40:47.937Z,9.10
2019-04-21T00:43:18.423Z,8.17
2019-04-21T00:45:42.259Z,9.10
2019-04-21T00:48:23.028Z,8.80
2019-04-21T00:51:12.330Z,7.80
2019-04-21T00:53:44.100Z,8.40
2019-04-21T00:56:15.275Z,8.70
2019-04-21T00:58:47.960Z,8.30
2019-04-21T01:01:16.939Z,8.50
2019-04-21T01:03:59.465Z,8.67
2019-04-21T01:06:34.124Z,8.80
2019-04-21T01:09:01.261Z,8.30
2019-04-21T01:11:31.837Z,7.70
2019-04-21T01:14:05.825Z,8.40
2019-04-21T01:16:39.278Z,8.20
2019-04-21T01:19:14.330Z,8.27
2019-04-21T01:21:24.157Z,8.70
2019-04-21T01:24:03.050Z,8.00
2019-04-21T01:26:41.668Z,9.03
2019-04-21T01:29:22.444Z,8.30
2019-04-21T01:31:57.006Z,8.23
2019-04-21T01:34:32.991Z,8.57
2019-04-21T01:36:58.475Z,8.30
2019-04-21T01:39:41.166Z,8.43
2019-04-21T01:42:11.330Z,8.30
2019-04-21T01:45:00.013Z,8.37
2019-04-21T01:47:10.270Z,8.47
2019-04-21T01:49:41.230Z,8.30
2019-04-21T01:52:34.997Z,7.80
2019-04-21T01:55:12.653Z,8.87
2019-04-21T01:58:00.474Z,8.03
2019-04-21T02:00:59.927Z,7.80
2019-04-21T02:03:52.873Z,8.50
2019-04-21T02:06:15.306Z,9.20
2019-04-21T02:08:36.077Z,8.47
2019-04-21T02:11:17.566Z,8.37
2019-04-21T02:13:59.184Z,8.50
2019-04-21T02:16:23.432Z,8.80
2019-04-21T02:18:55.579Z,7.90
2019-04-21T02:21:21.863Z,8.20
2019-04-21T02:26:45.677Z,8.17
2019-04-21T02:29:15.811Z,8.53
2019-04-21T02:31:57.510Z,8.33
2019-04-21T02:34:27.541Z,8.27
2019-04-21T02:42:15.697Z,8.10
2019-04-21T02:44:46.266Z,8.20
2019-04-21T02:47:21.635Z,8.53
2019-04-21T02:49:53.567Z,8.03
2019-04-21T02:54:53.995Z,8.33
2019-04-21T03:00:06.456Z,8.30
2019-04-21T03:02:55.058Z,8.07
2019-04-21T03:11:09.416Z,8.07
2019-04-21T03:13:42.216Z,8.63
2019-04-21T03:16:20.125Z,8.03
2019-04-21T03:18:52.461Z,8.37
2019-04-21T03:21:19.012Z,8.13
2019-04-21T03:26:28.228Z,8.60
2019-04-21T03:28:54.628Z,9.07
2019-04-21T03:39:05.397Z,8.63
2019-04-21T03:41:50.646Z,9.13
2019-04-21T03:44:16.613Z,8.47
2019-04-21T03:46:52.620Z,8.90
2019-04-21T03:49:32.583Z,8.63
2019-04-21T03:52:03.854Z,8.70
2019-04-21T03:54:26.691Z,8.90
2019-04-21T03:57:24.048Z,8.90
2019-04-21T03:59:36.173Z,8.40
2019-04-21T04:05:03.701Z,8.50
2019-04-21T04:08:28.675Z,8.50
2019-04-21T04:10:32.045Z,9.30
2019-04-21T04:13:09.583Z,9.17
2019-04-21T04:18:23.442Z,8.87
2019-04-21T04:20:51.894Z,9.23
2019-04-21T04:23:28.711Z,8.73
2019-04-21T04:28:43.821Z,8.97
2019-04-21T04:31:07.592Z,8.70
2019-04-21T04:36:10.653Z,8.93
2019-04-21T04:38:46.853Z,9.03
2019-04-21T04:41:34.953Z,8.93
2019-04-21T04:44:03.085Z,9.40
2019-04-21T04:46:55.755Z,9.20
2019-04-21T04:49:17.757Z,8.60
2019-04-21T04:51:56.267Z,9.30
2019-04-21T04:54:07.223Z,9.43
2019-04-21T04:56:47.764Z,9.30
2019-04-21T04:59:38.632Z,8.80
2019-04-21T05:02:00.315Z,9.77
2019-04-21T05:04:30.607Z,9.97
2019-04-21T05:06:59.395Z,9.90
2019-04-21T05:09:30.825Z,9.07
2019-04-21T05:14:42.746Z,9.37
2019-04-21T05:17:17.183Z,8.47
2019-04-21T05:19:53.339Z,9.60
2019-04-21T05:24:37.695Z,9.53
2019-04-21T05:27:29.465Z,9.53
2019-04-21T05:30:17.238Z,9.70
2019-04-21T05:33:09.699Z,9.57
2019-04-21T05:35:45.805Z,9.73
2019-04-21T05:38:27.511Z,9.53
2019-04-21T05:40:57.649Z,9.83
2019-04-21T05:43:35.191Z,9.07
2019-04-21T05:46:17.350Z,10.07
2019-04-21T05:48:46.978Z,10.77
2019-04-21T05:51:18.777Z,11.00
2019-04-21T05:53:59.842Z,9.80
2019-04-21T05:56:30.570Z,10.43
2019-04-21T05:59:02.400Z,10.80
2019-04-21T06:01:38.022Z,9.83
2019-04-21T06:04:17.203Z,10.77
2019-04-21T06:06:47.757Z,10.60
2019-04-21T06:09:19.019Z,10.03
2019-04-21T06:11:53.823Z,9.80
2019-04-21T06:14:31.041Z,9.00
2019-04-21T06:17:01.574Z,9.70
2019-04-21T06:19:40.769Z,9.47
2019-04-21T06:22:03.343Z,9.30
2019-04-21T06:24:52.305Z,9.97
2019-04-21T06:27:22.885Z,10.40
2019-04-21T06:29:43.718Z,10.87
2019-04-21T06:32:37.510Z,10.40
2019-04-21T06:35:12.473Z,10.93
2019-04-21T06:40:24.517Z,9.60
2019-04-21T06:42:39.162Z,9.83
2019-04-21T06:45:27.375Z,10.10
2019-04-21T06:47:57.415Z,9.80
2019-04-21T06:50:18.961Z,10.00
2019-04-21T06:52:56.222Z,8.83
2019-04-21T06:55:20.543Z,9.57
2019-04-21T06:57:56.001Z,9.30
2019-04-21T07:00:34.809Z,9.33
2019-04-21T07:03:17.016Z,9.07
2019-04-21T07:05:42.724Z,9.30
2019-04-21T07:10:45.093Z,10.00
2019-04-21T07:13:19.183Z,19.30
2019-04-21T07:15:50.139Z,13.23
2019-04-21T07:18:29.737Z,9.40
2019-04-21T07:21:02.771Z,8.00
2019-04-21T07:23:31.951Z,8.50
2019-04-21T07:26:05.809Z,7.57
2019-04-21T07:28:40.365Z,6.80
2019-04-21T07:31:15.511Z,6.37
2019-04-21T07:33:54.184Z,6.60
2019-04-21T07:36:21.878Z,6.60
2019-04-21T07:38:49.775Z,6.03
2019-04-21T07:41:16.236Z,6.73
2019-04-21T07:44:01.761Z,6.50
2019-04-21T07:46:33.028Z,7.00
2019-04-21T07:49:14.021Z,6.53
2019-04-21T07:52:05.705Z,6.17
2019-04-21T07:54:37.391Z,6.10
2019-04-21T07:56:52.379Z,5.83
2019-04-21T07:59:46.135Z,5.90
2019-04-21T08:02:10.267Z,5.80
2019-04-21T08:07:24.515Z,5.93
2019-04-21T08:09:51.421Z,6.03
2019-04-21T08:12:20.303Z,5.30
2019-04-21T08:15:05.315Z,5.50
2019-04-21T08:17:31.958Z,6.00
2019-04-21T08:20:07.450Z,5.87
2019-04-21T08:25:18.255Z,5.87
2019-04-21T08:27:55.517Z,5.20
2019-04-21T08:30:22.719Z,4.90
2019-04-21T08:33:04.374Z,5.10
2019-04-21T08:38:02.998Z,6.00
2019-04-21T08:40:49.656Z,4.90
2019-04-21T08:43:12.566Z,4.67
2019-04-21T08:45:47.019Z,5.03
2019-04-21T08:48:19.474Z,5.20
2019-04-21T08:51:02.026Z,4.63
2019-04-21T08:53:24.971Z,5.00
2019-04-21T08:56:12.401Z,4.47
2019-04-21T08:59:03.529Z,4.27
2019-04-21T09:01:38.353Z,4.60
2019-04-21T09:04:13.353Z,4.27
2019-04-21T09:09:23.646Z,4.20
2019-04-21T09:11:54.081Z,4.77
2019-04-21T09:14:24.287Z,4.50
2019-04-21T09:16:56.496Z,4.60
2019-04-21T09:19:44.375Z,4.10
2019-04-21T09:22:09.565Z,4.63
2019-04-21T09:24:41.027Z,4.07
2019-04-21T09:27:16.783Z,4.07
2019-04-21T09:29:39.355Z,4.67
2019-04-21T09:32:14.624Z,4.53
2019-04-21T09:34:43.763Z,4.57
2019-04-21T09:37:26.517Z,5.03
2019-04-21T09:39:50.779Z,4.53
2019-04-21T09:42:21.585Z,4.30
2019-04-21T09:44:58.056Z,4.60
2019-04-21T09:47:35.137Z,4.47
2019-04-21T09:50:02.757Z,4.50
2019-04-21T09:52:44.273Z,4.50
2019-04-21T09:55:13.990Z,4.80
2019-04-21T09:57:48.472Z,4.30
2019-04-21T10:00:22.401Z,4.27
2019-04-21T10:02:56.716Z,4.70
2019-04-21T10:05:22.233Z,4.60
2019-04-21T10:07:55.232Z,4.57
2019-04-21T10:10:27.506Z,4.17
2019-04-21T10:13:00.621Z,4.50
2019-04-21T10:15:33.335Z,4.47
2019-04-21T10:18:12.902Z,4.77
2019-04-21T10:20:44.876Z,6.43
2019-04-21T10:23:17.694Z,4.93
2019-04-21T10:25:50.551Z,6.27
2019-04-21T10:28:23.333Z,4.90
2019-04-21T10:30:56.532Z,4.93
2019-04-21T10:33:28.376Z,5.40
2019-04-21T10:36:01.277Z,5.10
2019-04-21T10:38:41.016Z,5.37
2019-04-21T10:41:07.753Z,4.93
2019-04-21T10:43:40.719Z,5.17
2019-04-21T10:46:12.891Z,4.50
2019-04-21T10:48:44.580Z,4.73
2019-04-21T10:51:17.177Z,4.63
2019-04-21T10:53:52.353Z,4.43
2019-04-21T10:56:30.645Z,5.00
2019-04-21T10:58:57.227Z,4.93
2019-04-21T11:01:31.483Z,4.93
2019-04-21T11:04:20.284Z,5.43
2019-04-21T11:06:48.217Z,5.63
2019-04-21T11:09:20.211Z,4.73
2019-04-21T11:11:53.499Z,5.30
2019-04-21T11:14:25.450Z,4.90
2019-04-21T11:16:58.468Z,5.17
2019-04-21T11:19:30.719Z,5.37
2019-04-21T11:22:02.988Z,5.17
2019-04-21T11:24:35.070Z,5.30
2019-04-21T11:27:08.803Z,5.13
2019-04-21T11:29:41.336Z,4.80
2019-04-21T11:32:13.214Z,4.70
2019-04-21T11:34:45.333Z,5.10
2019-04-21T11:37:19.958Z,4.70
2019-04-21T11:39:59.302Z,5.67
2019-04-21T11:42:43.934Z,5.50
2019-04-21T11:45:30.564Z,4.83
2019-04-21T11:48:12.559Z,6.00
2019-04-21T11:50:44.126Z,5.17
2019-04-21T11:53:16.851Z,5.10
2019-04-21T11:55:51.710Z,5.00
2019-04-21T11:58:21.993Z,5.30
2019-04-21T12:00:57.957Z,5.47
2019-04-21T12:03:29.625Z,5.37
2019-04-21T12:06:01.588Z,5.27
2019-04-21T12:08:40.446Z,5.40
2019-04-21T12:11:07.358Z,5.40
2019-04-21T12:13:40.250Z,5.23
2019-04-21T12:16:12.858Z,4.73
2019-04-21T12:18:45.114Z,5.27
2019-04-21T12:21:16.889Z,4.70
2019-04-21T12:23:48.481Z,5.50
2019-04-21T12:26:20.414Z,4.80
2019-04-21T12:28:53.554Z,4.63
2019-04-21T12:31:53.893Z,4.83
2019-04-21T12:34:25.942Z,5.30
2019-04-21T12:36:59.030Z,6.53
2019-04-21T12:39:30.889Z,4.97
2019-04-21T12:42:02.850Z,5.23
2019-04-21T12:44:34.492Z,4.77
2019-04-21T12:47:06.081Z,4.50
2019-04-21T12:49:38.100Z,5.40
2019-04-21T12:52:09.877Z,4.83
2019-04-21T12:54:41.814Z,4.33
2019-04-21T12:57:14.574Z,5.07
2019-04-21T12:59:46.707Z,4.53
2019-04-21T13:02:18.410Z,4.40
2019-04-21T13:04:52.188Z,3.80
2019-04-21T13:07:23.612Z,4.30
2019-04-21T13:09:55.321Z,4.50
2019-04-21T13:12:27.032Z,4.77
2019-04-21T13:14:59.558Z,4.90
2019-04-21T13:17:35.356Z,4.50
2019-04-21T13:20:07.966Z,4.70
2019-04-21T13:22:39.811Z,4.40
2019-04-21T13:25:13.955Z,4.80
2019-04-21T13:27:47.252Z,4.73
2019-04-21T13:30:22.246Z,5.17
2019-04-21T13:32:55.225Z,4.23
2019-04-21T13:35:28.893Z,4.73
2019-04-21T13:38:00.720Z,4.67
2019-04-21T13:41:05.288Z,5.20
2019-04-21T13:43:25.215Z,4.57
2019-04-21T13:45:57.480Z,4.83
2019-04-21T13:48:30.695Z,4.63
2019-04-21T13:51:02.412Z,4.43
2019-04-21T13:53:34.930Z,5.60
2019-04-21T13:56:08.922Z,5.50
2019-04-21T13:58:42.176Z,5.53
2019-04-21T14:01:13.964Z,4.37
2019-04-21T14:03:45.572Z,5.10
2019-04-21T14:06:18.458Z,4.60
2019-04-21T14:08:56.895Z,4.70
2019-04-21T14:11:29.261Z,4.70
2019-04-21T14:14:02.661Z,4.20
2019-04-21T14:16:34.385Z,4.97
2019-04-21T14:19:07.481Z,4.57
2019-04-21T14:21:39.361Z,5.10
2019-04-21T14:24:10.979Z,5.10
2019-04-21T14:26:42.572Z,4.40
2019-04-21T14:29:15.478Z,4.37
2019-04-21T14:31:48.456Z,4.40
2019-04-21T14:34:20.136Z,4.50
2019-04-21T14:36:52.953Z,4.70
2019-04-21T14:39:26.261Z,4.60
2019-04-21T14:41:58.197Z,4.33
2019-04-21T14:44:31.084Z,4.80
2019-04-21T14:47:09.366Z,4.13
2019-04-21T14:50:03.115Z,4.00
2019-04-21T14:52:37.361Z,4.50
2019-04-21T14:55:22.798Z,4.00
2019-04-21T14:57:54.924Z,4.37
2019-04-21T15:00:33.375Z,4.27
2019-04-21T15:03:05.599Z,4.00
2019-04-21T15:05:37.627Z,4.00
2019-04-21T15:08:09.287Z,4.40
2019-04-21T15:10:40.983Z,3.70
2019-04-21T15:13:13.952Z,3.90
2019-04-21T15:15:45.788Z,4.60
2019-04-21T15:18:18.560Z,4.30
2019-04-21T15:20:50.698Z,4.43
2019-04-21T15:23:25.223Z,5.30
2019-04-21T15:25:56.463Z,4.43
2019-04-21T15:28:31.637Z,3.90
2019-04-21T15:31:02.880Z,3.70
2019-04-21T15:33:34.966Z,4.40
2019-04-21T15:36:07.106Z,4.60
2019-04-21T15:38:40.152Z,4.17
2019-04-21T15:41:12.660Z,4.33
2019-04-21T15:43:46.685Z,4.17
2019-04-21T15:46:18.552Z,3.97
2019-04-21T15:48:51.018Z,4.10
2019-04-21T15:51:23.955Z,4.53
2019-04-21T15:53:57.591Z,3.97
2019-04-21T15:56:57.085Z,4.30
2019-04-21T15:59:37.865Z,4.70
2019-04-21T16:02:26.924Z,4.57
2019-04-21T16:04:58.995Z,4.60
2019-04-21T16:07:31.669Z,4.17
2019-04-21T16:10:06.282Z,3.83
2019-04-21T16:12:37.916Z,4.07
2019-04-21T16:15:10.688Z,3.90
2019-04-21T16:17:43.473Z,4.47
2019-04-21T16:20:15.586Z,3.97
2019-04-21T16:22:48.511Z,4.20
2019-04-21T16:25:21.028Z,3.70
2019-04-21T16:27:53.259Z,4.07
2019-04-21T16:30:25.877Z,4.23
2019-04-21T16:32:57.586Z,4.57
2019-04-21T16:35:29.584Z,4.30
2019-04-21T16:38:02.557Z,3.83
2019-04-21T16:40:43.282Z,4.10
2019-04-21T16:43:08.132Z,3.77
2019-04-21T16:45:41.023Z,3.80
2019-04-21T16:48:13.027Z,4.17
2019-04-21T16:50:45.780Z,3.03
2019-04-21T16:53:23.909Z,3.90
2019-04-21T16:56:02.760Z,3.57
2019-04-21T16:58:56.773Z,3.80
2019-04-21T17:01:31.571Z,4.17
2019-04-21T17:04:04.593Z,3.40
2019-04-21T17:06:38.246Z,4.10
2019-04-21T17:09:10.615Z,3.63
2019-04-21T17:11:46.148Z,3.67
2019-04-21T17:14:31.194Z,3.40
2019-04-21T17:17:16.267Z,3.67
2019-04-21T17:19:29.187Z,3.90
2019-04-21T17:21:55.750Z,4.00
2019-04-21T17:24:28.592Z,3.73
2019-04-21T17:27:00.407Z,3.60
2019-04-21T17:29:32.539Z,3.67
2019-04-21T17:32:07.858Z,3.80
2019-04-21T17:34:39.162Z,3.33
2019-04-21T17:37:11.267Z,3.77
2019-04-21T17:39:43.062Z,3.80
2019-04-21T17:42:27.533Z,3.37
2019-04-21T17:44:48.019Z,3.30
2019-04-21T17:47:34.175Z,4.20
2019-04-21T17:50:14.029Z,3.30
2019-04-21T17:52:56.380Z,3.40
2019-04-21T17:55:31.557Z,3.60
2019-04-21T17:58:14.989Z,3.70
2019-04-21T18:01:21.681Z,3.83
2019-04-21T18:03:40.376Z,3.63
2019-04-21T18:06:01.658Z,3.87
2019-04-21T18:08:43.023Z,3.70
2019-04-21T18:11:03.615Z,3.60
2019-04-21T18:13:26.852Z,3.50
2019-04-21T18:16:12.384Z,3.37
2019-04-21T18:18:32.956Z,3.40
2019-04-21T18:21:12.435Z,3.40
2019-04-21T18:23:58.540Z,3.83
2019-04-21T18:26:29.131Z,3.50
2019-04-21T18:28:57.194Z,3.57
2019-04-21T18:31:36.442Z,3.60
2019-04-21T18:34:34.220Z,3.33
2019-04-21T18:37:14.707Z,3.70
2019-04-21T18:40:01.588Z,3.40
2019-04-21T18:42:49.244Z,3.27
2019-04-21T18:48:29.354Z,3.80
2019-04-21T18:51:19.095Z,3.43
2019-04-21T18:54:25.165Z,3.30
2019-04-21T18:56:51.565Z,3.77
2019-04-21T18:59:14.153Z,3.50
2019-04-21T19:01:52.011Z,3.10
2019-04-21T19:04:22.529Z,3.73
2019-04-21T19:07:10.799Z,4.00
2019-04-21T19:10:03.618Z,3.60
2019-04-21T19:12:25.326Z,3.70
2019-04-21T19:14:52.122Z,3.40
2019-04-21T19:20:00.858Z,3.80
2019-04-21T19:22:33.196Z,3.63
2019-04-21T19:25:08.538Z,3.97
2019-04-21T19:27:38.041Z,3.37
2019-04-21T19:32:39.053Z,3.30
2019-04-21T19:35:02.008Z,3.57
2019-04-21T19:37:40.163Z,3.50
2019-04-21T19:40:29.036Z,3.57
2019-04-21T19:42:53.311Z,3.50
2019-04-21T19:45:33.216Z,3.60
2019-04-21T19:48:09.334Z,3.80
2019-04-21T19:50:41.226Z,3.60
2019-04-21T19:53:05.350Z,3.70
2019-04-21T19:55:29.769Z,3.70
2019-04-21T19:58:01.479Z,3.60
2019-04-21T20:00:33.144Z,3.50
2019-04-21T20:03:06.129Z,3.67
2019-04-21T20:05:44.997Z,3.30
2019-04-21T20:08:23.763Z,3.70
2019-04-21T20:11:08.519Z,4.07
2019-04-21T20:13:48.773Z,3.90
2019-04-21T20:16:12.978Z,3.90
2019-04-21T20:18:32.841Z,4.00
2019-04-21T20:20:58.327Z,4.67
2019-04-21T20:23:32.730Z,4.07
2019-04-21T20:26:06.420Z,4.07
2019-04-21T20:28:48.917Z,3.60
2019-04-21T20:31:29.345Z,3.93
2019-04-21T20:34:07.875Z,4.40
2019-04-21T20:36:42.848Z,4.00
2019-04-21T20:38:57.919Z,4.77
2019-04-21T20:41:36.714Z,4.50
2019-04-21T20:44:21.155Z,5.47
2019-04-21T20:46:45.038Z,5.93
2019-04-21T20:49:20.321Z,6.70
2019-04-21T20:52:01.731Z,6.30
2019-04-21T20:54:30.301Z,5.50
2019-04-21T20:57:03.172Z,5.40
2019-04-21T20:59:32.718Z,5.20
2019-04-21T21:02:05.494Z,5.60
2019-04-21T21:04:32.696Z,5.33
2019-04-21T21:07:30.641Z,5.77
2019-04-21T21:09:55.534Z,5.43
2019-04-21T21:12:27.633Z,4.83
2019-04-21T21:14:50.296Z,4.70
2019-04-21T21:17:39.305Z,5.70
2019-04-21T21:20:07.614Z,5.00
2019-04-21T21:22:33.128Z,4.83
2019-04-21T21:25:11.543Z,4.77
2019-04-21T21:27:39.626Z,4.93
2019-04-21T21:30:16.117Z,5.10
2019-04-21T21:32:52.458Z,5.17
2019-04-21T21:35:24.277Z,5.07
2019-04-21T21:37:59.685Z,5.10
2019-04-21T21:40:34.875Z,5.07
2019-04-21T21:42:48.127Z,5.03
2019-04-21T21:45:25.140Z,5.43
2019-04-21T21:48:11.503Z,5.40
2019-04-21T21:50:42.143Z,5.57
2019-04-21T21:53:08.591Z,5.60
2019-04-21T21:55:35.828Z,4.70
2019-04-21T21:58:08.477Z,5.03
2019-04-21T22:00:48.218Z,5.23
2019-04-21T22:03:26.630Z,5.90
2019-04-21T22:05:59.694Z,5.57
2019-04-21T22:08:22.638Z,5.57
2019-04-21T22:10:54.993Z,5.60
2019-04-21T22:13:36.295Z,6.00
2019-04-21T22:16:06.956Z,5.20
2019-04-21T22:18:56.286Z,5.70
2019-04-21T22:21:18.770Z,5.77
2019-04-21T22:23:51.624Z,5.50
2019-04-21T22:26:13.901Z,5.53
2019-04-21T22:28:47.586Z,6.10
2019-04-21T22:31:23.574Z,5.43
2019-04-21T22:33:56.382Z,5.80
2019-04-21T22:36:35.325Z,5.83
2019-04-21T22:39:15.730Z,5.80
2019-04-21T22:41:41.078Z,5.77
2019-04-21T22:44:10.137Z,5.60
2019-04-21T22:46:54.812Z,6.10
2019-04-21T22:49:16.957Z,6.00
2019-04-21T22:51:51.744Z,5.53
2019-04-21T22:54:29.623Z,5.70
2019-04-21T22:57:01.640Z,5.53
2019-04-21T22:59:30.099Z,5.77
2019-04-21T23:02:06.391Z,5.90
2019-04-21T23:04:41.710Z,5.97
2019-04-21T23:07:13.570Z,6.50
2019-04-21T23:09:42.953Z,6.10
2019-04-21T23:12:22.884Z,5.57
2019-04-21T23:14:57.653Z,5.83
2019-04-21T23:17:38.468Z,5.87
2019-04-21T23:20:19.509Z,5.43
2019-04-21T23:22:58.446Z,5.90
2019-04-21T23:25:25.113Z,5.27
2019-04-21T23:27:59.071Z,5.80
2019-04-21T23:30:32.336Z,4.70
2019-04-21T23:32:51.276Z,5.67
2019-04-21T23:35:22.731Z,6.07
2019-04-21T23:37:57.721Z,5.23
2019-04-21T23:40:27.363Z,4.90
2019-04-21T23:43:00.082Z,5.30
2019-04-21T23:45:36.193Z,5.80
2019-04-21T23:48:18.548Z,5.27
2019-04-21T23:50:49.106Z,5.50
2019-04-21T23:53:13.132Z,5.73
2019-04-21T23:55:45.335Z,5.00
2019-04-21T23:58:22.241Z,5.10
